sensor_id;sensor_type;location;lat;lon;timestamp;P1;durP1;ratioP1;P2;durP2;ratioP2
13415;SDS011;6779;50.150;8.680;2023-04-09T00:01:22;12.80;;;9.70;;
13415;SDS011;6779;50.150;8.680;2023-04-09T00:03:48;15.67;;;10.43;;
13415;SDS011;6779;50.150;8.680;2023-04-09T00:06:13;15.10;;;10.50;;
13415;SDS011;6779;50.150;8.680;2023-04-09T00:08:38;14.27;;;10.80;;
13415;SDS011;6779;50.150;8.680;2023-04-09T00:11:04;11.60;;;9.13;;
13415;SDS011;6779;50.150;8.680;2023-04-09T00:13:29;16.07;;;10.57;;
13415;SDS011;6779;50.150;8.680;2023-04-09T00:15:55;13.33;;;9.97;;
13415;SDS011;6779;50.150;8.680;2023-04-09T00:18:20;15.20;;;10.60;;
13415;SDS011;6779;50.150;8.680;2023-04-09T00:20:45;16.33;;;10.00;;
13415;SDS011;6779;50.150;8.680;2023-04-09T00:23:11;13.80;;;10.67;;
13415;SDS011;6779;50.150;8.680;2023-04-09T00:25:36;13.17;;;10.13;;
13415;SDS011;6779;50.150;8.680;2023-04-09T00:28:01;15.37;;;10.33;;
13415;SDS011;6779;50.150;8.680;2023-04-09T00:30:27;14.07;;;10.77;;
13415;SDS011;6779;50.150;8.680;2023-04-09T00:32:54;14.13;;;10.00;;
13415;SDS011;6779;50.150;8.680;2023-04-09T00:35:19;15.53;;;10.77;;
13415;SDS011;6779;50.150;8.680;2023-04-09T00:37:44;15.43;;;10.97;;
13415;SDS011;6779;50.150;8.680;2023-04-09T00:40:10;14.27;;;10.83;;
13415;SDS011;6779;50.150;8.680;2023-04-09T00:42:35;14.13;;;11.13;;
13415;SDS011;6779;50.150;8.680;2023-04-09T00:45:01;15.07;;;10.57;;
13415;SDS011;6779;50.150;8.680;2023-04-09T00:47:27;16.63;;;11.30;;
13415;SDS011;6779;50.150;8.680;2023-04-09T00:49:53;13.60;;;9.97;;
13415;SDS011;6779;50.150;8.680;2023-04-09T00:52:19;14.23;;;11.07;;
13415;SDS011;6779;50.150;8.680;2023-04-09T00:54:45;16.27;;;10.67;;
13415;SDS011;6779;50.150;8.680;2023-04-09T00:57:11;14.20;;;10.73;;
13415;SDS011;6779;50.150;8.680;2023-04-09T00:59:37;15.90;;;10.77;;
13415;SDS011;6779;50.150;8.680;2023-04-09T01:02:02;14.40;;;10.63;;
13415;SDS011;6779;50.150;8.680;2023-04-09T01:04:27;15.37;;;11.50;;
13415;SDS011;6779;50.150;8.680;2023-04-09T01:06:54;15.20;;;10.93;;
13415;SDS011;6779;50.150;8.680;2023-04-09T01:09:36;16.17;;;11.00;;
13415;SDS011;6779;50.150;8.680;2023-04-09T01:12:11;15.43;;;9.97;;
13415;SDS011;6779;50.150;8.680;2023-04-09T01:14:48;14.93;;;11.07;;
13415;SDS011;6779;50.150;8.680;2023-04-09T01:17:21;14.30;;;10.77;;
13415;SDS011;6779;50.150;8.680;2023-04-09T01:20:08;14.50;;;11.03;;
13415;SDS011;6779;50.150;8.680;2023-04-09T01:22:59;16.83;;;11.30;;
13415;SDS011;6779;50.150;8.680;2023-04-09T01:25:50;15.27;;;10.77;;
13415;SDS011;6779;50.150;8.680;2023-04-09T01:28:38;17.03;;;11.47;;
13415;SDS011;6779;50.150;8.680;2023-04-09T01:31:08;15.27;;;11.67;;
13415;SDS011;6779;50.150;8.680;2023-04-09T01:33:37;17.03;;;10.73;;
13415;SDS011;6779;50.150;8.680;2023-04-09T01:36:03;15.90;;;11.10;;
13415;SDS011;6779;50.150;8.680;2023-04-09T01:38:29;17.33;;;11.10;;
13415;SDS011;6779;50.150;8.680;2023-04-09T01:40:55;16.40;;;11.17;;
13415;SDS011;6779;50.150;8.680;2023-04-09T01:43:21;17.80;;;11.87;;
13415;SDS011;6779;50.150;8.680;2023-04-09T01:45:48;14.67;;;11.00;;
13415;SDS011;6779;50.150;8.680;2023-04-09T01:48:13;14.53;;;10.90;;
13415;SDS011;6779;50.150;8.680;2023-04-09T01:50:40;17.13;;;11.03;;
13415;SDS011;6779;50.150;8.680;2023-04-09T01:53:05;15.83;;;11.37;;
13415;SDS011;6779;50.150;8.680;2023-04-09T01:55:31;18.20;;;12.33;;
13415;SDS011;6779;50.150;8.680;2023-04-09T01:57:56;13.60;;;11.30;;
13415;SDS011;6779;50.150;8.680;2023-04-09T02:00:22;16.00;;;11.23;;
13415;SDS011;6779;50.150;8.680;2023-04-09T02:02:56;15.00;;;11.57;;
13415;SDS011;6779;50.150;8.680;2023-04-09T02:05:27;16.40;;;11.27;;
13415;SDS011;6779;50.150;8.680;2023-04-09T02:07:54;17.87;;;11.13;;
13415;SDS011;6779;50.150;8.680;2023-04-09T02:10:21;17.60;;;11.57;;
13415;SDS011;6779;50.150;8.680;2023-04-09T02:12:51;15.30;;;11.27;;
13415;SDS011;6779;50.150;8.680;2023-04-09T02:15:18;16.17;;;10.63;;
13415;SDS011;6779;50.150;8.680;2023-04-09T02:17:44;16.73;;;11.23;;
13415;SDS011;6779;50.150;8.680;2023-04-09T02:20:09;18.10;;;12.30;;
13415;SDS011;6779;50.150;8.680;2023-04-09T02:22:36;16.03;;;11.13;;
13415;SDS011;6779;50.150;8.680;2023-04-09T02:25:01;17.00;;;12.27;;
13415;SDS011;6779;50.150;8.680;2023-04-09T02:27:26;17.37;;;11.50;;
13415;SDS011;6779;50.150;8.680;2023-04-09T02:29:51;17.60;;;12.10;;
13415;SDS011;6779;50.150;8.680;2023-04-09T02:32:17;17.97;;;11.57;;
13415;SDS011;6779;50.150;8.680;2023-04-09T02:34:42;16.30;;;11.27;;
13415;SDS011;6779;50.150;8.680;2023-04-09T02:37:07;16.03;;;11.60;;
13415;SDS011;6779;50.150;8.680;2023-04-09T02:39:33;16.87;;;12.00;;
13415;SDS011;6779;50.150;8.680;2023-04-09T02:41:58;18.03;;;11.53;;
13415;SDS011;6779;50.150;8.680;2023-04-09T02:44:23;17.67;;;12.00;;
13415;SDS011;6779;50.150;8.680;2023-04-09T02:46:49;15.47;;;11.97;;
13415;SDS011;6779;50.150;8.680;2023-04-09T02:49:15;17.37;;;11.50;;
13415;SDS011;6779;50.150;8.680;2023-04-09T02:51:41;19.30;;;12.17;;
13415;SDS011;6779;50.150;8.680;2023-04-09T02:54:06;19.20;;;12.17;;
13415;SDS011;6779;50.150;8.680;2023-04-09T02:56:31;17.07;;;11.70;;
13415;SDS011;6779;50.150;8.680;2023-04-09T02:58:57;22.40;;;13.20;;
13415;SDS011;6779;50.150;8.680;2023-04-09T03:01:22;18.97;;;12.20;;
13415;SDS011;6779;50.150;8.680;2023-04-09T03:03:48;16.90;;;11.80;;
13415;SDS011;6779;50.150;8.680;2023-04-09T03:06:13;18.30;;;12.63;;
13415;SDS011;6779;50.150;8.680;2023-04-09T03:08:39;20.50;;;12.93;;
13415;SDS011;6779;50.150;8.680;2023-04-09T03:11:04;18.60;;;11.93;;
13415;SDS011;6779;50.150;8.680;2023-04-09T03:13:29;18.67;;;12.93;;
13415;SDS011;6779;50.150;8.680;2023-04-09T03:15:55;19.20;;;12.37;;
13415;SDS011;6779;50.150;8.680;2023-04-09T03:18:20;18.17;;;12.27;;
13415;SDS011;6779;50.150;8.680;2023-04-09T03:20:45;17.30;;;11.77;;
13415;SDS011;6779;50.150;8.680;2023-04-09T03:23:11;18.50;;;12.27;;
13415;SDS011;6779;50.150;8.680;2023-04-09T03:25:36;19.23;;;12.30;;
13415;SDS011;6779;50.150;8.680;2023-04-09T03:28:02;16.40;;;11.80;;
13415;SDS011;6779;50.150;8.680;2023-04-09T03:30:28;19.60;;;12.70;;
13415;SDS011;6779;50.150;8.680;2023-04-09T03:32:53;19.67;;;12.47;;
13415;SDS011;6779;50.150;8.680;2023-04-09T03:35:18;20.57;;;12.60;;
13415;SDS011;6779;50.150;8.680;2023-04-09T03:37:44;19.70;;;13.03;;
13415;SDS011;6779;50.150;8.680;2023-04-09T03:40:09;18.57;;;12.87;;
13415;SDS011;6779;50.150;8.680;2023-04-09T03:42:35;18.97;;;13.27;;
13415;SDS011;6779;50.150;8.680;2023-04-09T03:45:01;18.63;;;12.73;;
13415;SDS011;6779;50.150;8.680;2023-04-09T03:47:27;18.40;;;11.93;;
13415;SDS011;6779;50.150;8.680;2023-04-09T03:49:52;18.70;;;12.70;;
13415;SDS011;6779;50.150;8.680;2023-04-09T03:52:18;18.70;;;12.33;;
13415;SDS011;6779;50.150;8.680;2023-04-09T03:54:43;19.00;;;12.90;;
13415;SDS011;6779;50.150;8.680;2023-04-09T03:57:08;19.00;;;13.20;;
13415;SDS011;6779;50.150;8.680;2023-04-09T03:59:34;19.50;;;12.73;;
13415;SDS011;6779;50.150;8.680;2023-04-09T04:01:59;19.07;;;12.43;;
13415;SDS011;6779;50.150;8.680;2023-04-09T04:04:25;20.47;;;12.67;;
13415;SDS011;6779;50.150;8.680;2023-04-09T04:06:50;19.90;;;13.07;;
13415;SDS011;6779;50.150;8.680;2023-04-09T04:09:16;20.67;;;13.40;;
13415;SDS011;6779;50.150;8.680;2023-04-09T04:11:41;21.83;;;14.50;;
13415;SDS011;6779;50.150;8.680;2023-04-09T04:14:06;16.47;;;12.17;;
13415;SDS011;6779;50.150;8.680;2023-04-09T04:16:32;20.27;;;13.20;;
13415;SDS011;6779;50.150;8.680;2023-04-09T04:18:57;21.17;;;13.07;;
13415;SDS011;6779;50.150;8.680;2023-04-09T04:21:23;20.73;;;13.73;;
13415;SDS011;6779;50.150;8.680;2023-04-09T04:23:48;22.33;;;13.63;;
13415;SDS011;6779;50.150;8.680;2023-04-09T04:26:13;19.07;;;12.60;;
13415;SDS011;6779;50.150;8.680;2023-04-09T04:28:39;17.90;;;12.40;;
13415;SDS011;6779;50.150;8.680;2023-04-09T04:31:10;20.20;;;13.73;;
13415;SDS011;6779;50.150;8.680;2023-04-09T04:33:36;18.27;;;12.20;;
13415;SDS011;6779;50.150;8.680;2023-04-09T04:36:06;22.63;;;13.43;;
13415;SDS011;6779;50.150;8.680;2023-04-09T04:38:33;20.57;;;12.73;;
13415;SDS011;6779;50.150;8.680;2023-04-09T04:40:59;19.40;;;13.93;;
13415;SDS011;6779;50.150;8.680;2023-04-09T04:43:24;20.83;;;13.37;;
13415;SDS011;6779;50.150;8.680;2023-04-09T04:45:49;22.23;;;14.20;;
13415;SDS011;6779;50.150;8.680;2023-04-09T04:48:15;20.87;;;12.90;;
13415;SDS011;6779;50.150;8.680;2023-04-09T04:50:40;23.30;;;14.83;;
13415;SDS011;6779;50.150;8.680;2023-04-09T04:53:05;22.67;;;14.60;;
13415;SDS011;6779;50.150;8.680;2023-04-09T04:55:31;21.87;;;14.63;;
13415;SDS011;6779;50.150;8.680;2023-04-09T04:57:58;21.10;;;14.37;;
13415;SDS011;6779;50.150;8.680;2023-04-09T05:00:24;21.80;;;14.10;;
13415;SDS011;6779;50.150;8.680;2023-04-09T05:02:49;22.70;;;14.30;;
13415;SDS011;6779;50.150;8.680;2023-04-09T05:05:14;23.43;;;13.80;;
13415;SDS011;6779;50.150;8.680;2023-04-09T05:07:40;20.70;;;13.00;;
13415;SDS011;6779;50.150;8.680;2023-04-09T05:10:05;21.33;;;13.70;;
13415;SDS011;6779;50.150;8.680;2023-04-09T05:12:31;22.17;;;13.60;;
13415;SDS011;6779;50.150;8.680;2023-04-09T05:14:57;19.97;;;13.80;;
13415;SDS011;6779;50.150;8.680;2023-04-09T05:17:22;20.27;;;13.23;;
13415;SDS011;6779;50.150;8.680;2023-04-09T05:19:51;20.70;;;13.17;;
13415;SDS011;6779;50.150;8.680;2023-04-09T05:22:17;21.27;;;13.70;;
13415;SDS011;6779;50.150;8.680;2023-04-09T05:24:43;21.00;;;13.60;;
13415;SDS011;6779;50.150;8.680;2023-04-09T05:27:08;23.00;;;14.13;;
13415;SDS011;6779;50.150;8.680;2023-04-09T05:29:33;24.27;;;14.63;;
13415;SDS011;6779;50.150;8.680;2023-04-09T05:31:59;19.80;;;13.23;;
13415;SDS011;6779;50.150;8.680;2023-04-09T05:34:24;20.73;;;13.90;;
13415;SDS011;6779;50.150;8.680;2023-04-09T05:36:50;20.43;;;14.07;;
13415;SDS011;6779;50.150;8.680;2023-04-09T05:39:16;24.47;;;14.20;;
13415;SDS011;6779;50.150;8.680;2023-04-09T05:41:41;23.97;;;15.93;;
13415;SDS011;6779;50.150;8.680;2023-04-09T05:44:08;23.90;;;14.70;;
13415;SDS011;6779;50.150;8.680;2023-04-09T05:46:34;21.67;;;14.17;;
13415;SDS011;6779;50.150;8.680;2023-04-09T05:48:59;21.70;;;14.30;;
13415;SDS011;6779;50.150;8.680;2023-04-09T05:51:24;23.13;;;15.03;;
13415;SDS011;6779;50.150;8.680;2023-04-09T05:53:50;21.07;;;13.70;;
13415;SDS011;6779;50.150;8.680;2023-04-09T05:56:15;21.43;;;13.60;;
13415;SDS011;6779;50.150;8.680;2023-04-09T05:58:41;20.73;;;13.67;;
13415;SDS011;6779;50.150;8.680;2023-04-09T06:01:06;21.40;;;13.37;;
13415;SDS011;6779;50.150;8.680;2023-04-09T06:03:31;22.17;;;13.63;;
13415;SDS011;6779;50.150;8.680;2023-04-09T06:05:57;19.67;;;13.17;;
13415;SDS011;6779;50.150;8.680;2023-04-09T06:08:22;21.27;;;13.60;;
13415;SDS011;6779;50.150;8.680;2023-04-09T06:10:47;21.57;;;13.80;;
13415;SDS011;6779;50.150;8.680;2023-04-09T06:13:12;21.57;;;13.37;;
13415;SDS011;6779;50.150;8.680;2023-04-09T06:15:38;20.77;;;13.43;;
13415;SDS011;6779;50.150;8.680;2023-04-09T06:18:03;19.93;;;13.63;;
13415;SDS011;6779;50.150;8.680;2023-04-09T06:20:29;23.27;;;14.07;;
13415;SDS011;6779;50.150;8.680;2023-04-09T06:22:54;20.83;;;14.20;;
13415;SDS011;6779;50.150;8.680;2023-04-09T06:25:19;22.20;;;13.70;;
13415;SDS011;6779;50.150;8.680;2023-04-09T06:27:45;18.53;;;12.87;;
13415;SDS011;6779;50.150;8.680;2023-04-09T06:30:10;21.53;;;13.67;;
13415;SDS011;6779;50.150;8.680;2023-04-09T06:32:36;21.90;;;14.03;;
13415;SDS011;6779;50.150;8.680;2023-04-09T06:35:01;20.80;;;13.07;;
13415;SDS011;6779;50.150;8.680;2023-04-09T06:37:26;20.53;;;14.00;;
13415;SDS011;6779;50.150;8.680;2023-04-09T06:39:52;20.60;;;13.47;;
13415;SDS011;6779;50.150;8.680;2023-04-09T06:42:17;23.13;;;14.27;;
13415;SDS011;6779;50.150;8.680;2023-04-09T06:44:42;19.00;;;13.10;;
13415;SDS011;6779;50.150;8.680;2023-04-09T06:47:07;20.57;;;14.07;;
13415;SDS011;6779;50.150;8.680;2023-04-09T06:49:33;21.10;;;12.93;;
13415;SDS011;6779;50.150;8.680;2023-04-09T06:51:58;21.80;;;14.13;;
13415;SDS011;6779;50.150;8.680;2023-04-09T06:54:23;22.43;;;14.33;;
13415;SDS011;6779;50.150;8.680;2023-04-09T06:56:49;21.63;;;15.00;;
13415;SDS011;6779;50.150;8.680;2023-04-09T06:59:14;20.73;;;13.73;;
13415;SDS011;6779;50.150;8.680;2023-04-09T07:01:40;20.80;;;14.17;;
13415;SDS011;6779;50.150;8.680;2023-04-09T07:04:05;22.53;;;15.23;;
13415;SDS011;6779;50.150;8.680;2023-04-09T07:06:31;22.73;;;15.00;;
13415;SDS011;6779;50.150;8.680;2023-04-09T07:08:56;22.80;;;13.70;;
13415;SDS011;6779;50.150;8.680;2023-04-09T07:11:21;20.47;;;14.20;;
13415;SDS011;6779;50.150;8.680;2023-04-09T07:13:47;20.20;;;14.20;;
13415;SDS011;6779;50.150;8.680;2023-04-09T07:16:12;23.20;;;15.33;;
13415;SDS011;6779;50.150;8.680;2023-04-09T07:18:38;20.67;;;15.10;;
13415;SDS011;6779;50.150;8.680;2023-04-09T07:21:03;21.87;;;14.30;;
13415;SDS011;6779;50.150;8.680;2023-04-09T07:23:28;19.70;;;13.40;;
13415;SDS011;6779;50.150;8.680;2023-04-09T07:25:53;21.97;;;14.13;;
13415;SDS011;6779;50.150;8.680;2023-04-09T07:28:19;21.67;;;14.73;;
13415;SDS011;6779;50.150;8.680;2023-04-09T07:30:45;21.30;;;14.40;;
13415;SDS011;6779;50.150;8.680;2023-04-09T07:33:10;20.13;;;14.50;;
13415;SDS011;6779;50.150;8.680;2023-04-09T07:35:36;21.47;;;15.10;;
13415;SDS011;6779;50.150;8.680;2023-04-09T07:38:01;20.97;;;14.93;;
13415;SDS011;6779;50.150;8.680;2023-04-09T07:40:27;23.50;;;15.70;;
13415;SDS011;6779;50.150;8.680;2023-04-09T07:42:52;22.23;;;16.10;;
13415;SDS011;6779;50.150;8.680;2023-04-09T07:45:18;22.17;;;15.43;;
13415;SDS011;6779;50.150;8.680;2023-04-09T07:47:43;21.10;;;15.83;;
13415;SDS011;6779;50.150;8.680;2023-04-09T07:50:08;23.33;;;15.00;;
13415;SDS011;6779;50.150;8.680;2023-04-09T07:52:34;20.17;;;14.60;;
13415;SDS011;6779;50.150;8.680;2023-04-09T07:55:00;21.10;;;15.23;;
13415;SDS011;6779;50.150;8.680;2023-04-09T07:57:25;21.27;;;15.53;;
13415;SDS011;6779;50.150;8.680;2023-04-09T07:59:51;20.27;;;14.90;;
13415;SDS011;6779;50.150;8.680;2023-04-09T08:02:17;21.57;;;15.03;;
13415;SDS011;6779;50.150;8.680;2023-04-09T08:04:42;19.20;;;14.23;;
13415;SDS011;6779;50.150;8.680;2023-04-09T08:07:08;21.80;;;14.50;;
13415;SDS011;6779;50.150;8.680;2023-04-09T08:09:33;22.50;;;16.27;;
13415;SDS011;6779;50.150;8.680;2023-04-09T08:11:58;20.17;;;15.17;;
13415;SDS011;6779;50.150;8.680;2023-04-09T08:14:25;22.50;;;15.77;;
13415;SDS011;6779;50.150;8.680;2023-04-09T08:16:50;22.23;;;15.87;;
13415;SDS011;6779;50.150;8.680;2023-04-09T08:19:15;20.83;;;15.10;;
13415;SDS011;6779;50.150;8.680;2023-04-09T08:21:41;21.53;;;15.67;;
13415;SDS011;6779;50.150;8.680;2023-04-09T08:24:07;21.23;;;17.83;;
13415;SDS011;6779;50.150;8.680;2023-04-09T08:26:36;18.00;;;15.57;;
13415;SDS011;6779;50.150;8.680;2023-04-09T08:29:02;21.20;;;16.27;;
13415;SDS011;6779;50.150;8.680;2023-04-09T08:31:27;19.20;;;14.80;;
13415;SDS011;6779;50.150;8.680;2023-04-09T08:33:52;19.87;;;15.77;;
13415;SDS011;6779;50.150;8.680;2023-04-09T08:36:18;21.97;;;17.20;;
13415;SDS011;6779;50.150;8.680;2023-04-09T08:38:44;17.90;;;14.53;;
13415;SDS011;6779;50.150;8.680;2023-04-09T08:41:16;18.27;;;15.23;;
13415;SDS011;6779;50.150;8.680;2023-04-09T08:43:42;17.37;;;15.27;;
13415;SDS011;6779;50.150;8.680;2023-04-09T08:46:09;19.17;;;15.10;;
13415;SDS011;6779;50.150;8.680;2023-04-09T08:48:34;18.47;;;14.43;;
13415;SDS011;6779;50.150;8.680;2023-04-09T08:50:59;18.33;;;15.07;;
13415;SDS011;6779;50.150;8.680;2023-04-09T08:53:25;18.77;;;14.07;;
13415;SDS011;6779;50.150;8.680;2023-04-09T08:55:51;21.27;;;15.57;;
13415;SDS011;6779;50.150;8.680;2023-04-09T08:58:16;19.77;;;15.53;;
13415;SDS011;6779;50.150;8.680;2023-04-09T09:00:41;18.40;;;14.90;;
13415;SDS011;6779;50.150;8.680;2023-04-09T09:03:10;16.23;;;13.47;;
13415;SDS011;6779;50.150;8.680;2023-04-09T09:05:40;18.73;;;15.27;;
13415;SDS011;6779;50.150;8.680;2023-04-09T09:08:10;17.27;;;14.17;;
13415;SDS011;6779;50.150;8.680;2023-04-09T09:13:14;19.13;;;14.73;;
13415;SDS011;6779;50.150;8.680;2023-04-09T09:15:40;17.27;;;15.00;;
13415;SDS011;6779;50.150;8.680;2023-04-09T09:18:07;19.50;;;14.70;;
13415;SDS011;6779;50.150;8.680;2023-04-09T09:20:32;17.90;;;14.10;;
13415;SDS011;6779;50.150;8.680;2023-04-09T09:22:57;18.50;;;14.40;;
13415;SDS011;6779;50.150;8.680;2023-04-09T09:25:23;15.60;;;13.73;;
13415;SDS011;6779;50.150;8.680;2023-04-09T09:27:49;15.53;;;13.90;;
13415;SDS011;6779;50.150;8.680;2023-04-09T09:30:22;15.87;;;14.17;;
13415;SDS011;6779;50.150;8.680;2023-04-09T09:32:53;16.07;;;13.30;;
13415;SDS011;6779;50.150;8.680;2023-04-09T09:35:29;15.77;;;14.03;;
13415;SDS011;6779;50.150;8.680;2023-04-09T09:38:01;15.77;;;14.07;;
13415;SDS011;6779;50.150;8.680;2023-04-09T09:40:28;13.60;;;11.87;;
13415;SDS011;6779;50.150;8.680;2023-04-09T09:42:56;13.90;;;12.50;;
13415;SDS011;6779;50.150;8.680;2023-04-09T09:45:22;14.90;;;13.30;;
13415;SDS011;6779;50.150;8.680;2023-04-09T09:47:48;17.23;;;12.67;;
13415;SDS011;6779;50.150;8.680;2023-04-09T09:50:13;14.27;;;12.07;;
13415;SDS011;6779;50.150;8.680;2023-04-09T09:52:39;13.23;;;11.83;;
13415;SDS011;6779;50.150;8.680;2023-04-09T09:55:08;13.17;;;11.87;;
13415;SDS011;6779;50.150;8.680;2023-04-09T09:57:34;13.87;;;12.30;;
13415;SDS011;6779;50.150;8.680;2023-04-09T10:00:01;13.40;;;11.73;;
13415;SDS011;6779;50.150;8.680;2023-04-09T10:02:29;14.97;;;12.97;;
13415;SDS011;6779;50.150;8.680;2023-04-09T10:04:58;11.10;;;9.90;;
13415;SDS011;6779;50.150;8.680;2023-04-09T10:07:24;13.30;;;11.90;;
13415;SDS011;6779;50.150;8.680;2023-04-09T10:09:51;11.93;;;10.73;;
13415;SDS011;6779;50.150;8.680;2023-04-09T10:12:17;12.57;;;11.37;;
13415;SDS011;6779;50.150;8.680;2023-04-09T10:14:43;13.07;;;11.77;;
13415;SDS011;6779;50.150;8.680;2023-04-09T10:17:09;12.57;;;11.37;;
13415;SDS011;6779;50.150;8.680;2023-04-09T10:19:36;11.97;;;10.87;;
13415;SDS011;6779;50.150;8.680;2023-04-09T10:22:10;12.93;;;11.37;;
13415;SDS011;6779;50.150;8.680;2023-04-09T10:24:37;12.33;;;10.90;;
13415;SDS011;6779;50.150;8.680;2023-04-09T10:27:09;11.80;;;10.60;;
13415;SDS011;6779;50.150;8.680;2023-04-09T10:29:45;11.97;;;10.60;;
13415;SDS011;6779;50.150;8.680;2023-04-09T10:32:13;12.83;;;11.53;;
13415;SDS011;6779;50.150;8.680;2023-04-09T10:34:44;11.27;;;10.07;;
13415;SDS011;6779;50.150;8.680;2023-04-09T10:37:14;14.07;;;11.93;;
13415;SDS011;6779;50.150;8.680;2023-04-09T10:39:44;12.97;;;11.27;;
13415;SDS011;6779;50.150;8.680;2023-04-09T10:42:12;12.83;;;11.50;;
13415;SDS011;6779;50.150;8.680;2023-04-09T10:44:39;12.47;;;11.10;;
13415;SDS011;6779;50.150;8.680;2023-04-09T10:47:08;13.57;;;12.00;;
13415;SDS011;6779;50.150;8.680;2023-04-09T10:49:35;13.13;;;11.83;;
13415;SDS011;6779;50.150;8.680;2023-04-09T10:52:02;12.47;;;11.27;;
13415;SDS011;6779;50.150;8.680;2023-04-09T10:59:33;12.60;;;11.13;;
13415;SDS011;6779;50.150;8.680;2023-04-09T11:02:01;15.80;;;13.23;;
13415;SDS011;6779;50.150;8.680;2023-04-09T11:04:30;14.30;;;10.90;;
13415;SDS011;6779;50.150;8.680;2023-04-09T11:07:35;13.43;;;10.47;;
13415;SDS011;6779;50.150;8.680;2023-04-09T11:10:04;11.17;;;9.83;;
13415;SDS011;6779;50.150;8.680;2023-04-09T11:12:30;11.40;;;9.87;;
13415;SDS011;6779;50.150;8.680;2023-04-09T11:14:55;14.97;;;11.83;;
13415;SDS011;6779;50.150;8.680;2023-04-09T11:17:21;11.60;;;10.40;;
13415;SDS011;6779;50.150;8.680;2023-04-09T11:19:46;12.47;;;10.80;;
13415;SDS011;6779;50.150;8.680;2023-04-09T11:22:11;14.20;;;10.90;;
13415;SDS011;6779;50.150;8.680;2023-04-09T11:24:40;12.73;;;10.80;;
13415;SDS011;6779;50.150;8.680;2023-04-09T11:27:06;12.83;;;10.53;;
13415;SDS011;6779;50.150;8.680;2023-04-09T11:29:31;16.77;;;13.43;;
13415;SDS011;6779;50.150;8.680;2023-04-09T11:31:58;12.57;;;10.37;;
13415;SDS011;6779;50.150;8.680;2023-04-09T11:34:26;12.57;;;10.90;;
13415;SDS011;6779;50.150;8.680;2023-04-09T11:36:55;11.30;;;9.53;;
13415;SDS011;6779;50.150;8.680;2023-04-09T11:39:20;12.80;;;10.13;;
13415;SDS011;6779;50.150;8.680;2023-04-09T11:41:46;11.43;;;9.97;;
13415;SDS011;6779;50.150;8.680;2023-04-09T11:44:11;11.97;;;9.97;;
13415;SDS011;6779;50.150;8.680;2023-04-09T11:46:37;12.07;;;10.37;;
13415;SDS011;6779;50.150;8.680;2023-04-09T11:49:03;11.20;;;9.83;;
13415;SDS011;6779;50.150;8.680;2023-04-09T11:51:28;12.37;;;10.17;;
13415;SDS011;6779;50.150;8.680;2023-04-09T11:54:00;11.13;;;9.67;;
13415;SDS011;6779;50.150;8.680;2023-04-09T11:56:28;10.70;;;9.43;;
13415;SDS011;6779;50.150;8.680;2023-04-09T11:58:53;11.40;;;9.90;;
13415;SDS011;6779;50.150;8.680;2023-04-09T12:01:20;10.40;;;9.30;;
13415;SDS011;6779;50.150;8.680;2023-04-09T12:03:50;11.80;;;9.13;;
13415;SDS011;6779;50.150;8.680;2023-04-09T12:06:17;12.37;;;8.90;;
13415;SDS011;6779;50.150;8.680;2023-04-09T12:08:44;9.23;;;8.30;;
13415;SDS011;6779;50.150;8.680;2023-04-09T12:11:10;9.70;;;8.03;;
13415;SDS011;6779;50.150;8.680;2023-04-09T12:13:36;10.40;;;8.33;;
13415;SDS011;6779;50.150;8.680;2023-04-09T12:16:06;8.53;;;7.57;;
13415;SDS011;6779;50.150;8.680;2023-04-09T12:18:34;10.27;;;8.03;;
13415;SDS011;6779;50.150;8.680;2023-04-09T12:21:00;9.10;;;8.10;;
13415;SDS011;6779;50.150;8.680;2023-04-09T12:23:26;8.43;;;7.63;;
13415;SDS011;6779;50.150;8.680;2023-04-09T12:25:51;8.77;;;7.83;;
13415;SDS011;6779;50.150;8.680;2023-04-09T12:28:18;10.90;;;8.90;;
13415;SDS011;6779;50.150;8.680;2023-04-09T12:30:43;9.40;;;8.40;;
13415;SDS011;6779;50.150;8.680;2023-04-09T12:33:09;9.23;;;7.97;;
13415;SDS011;6779;50.150;8.680;2023-04-09T12:35:34;10.57;;;8.53;;
13415;SDS011;6779;50.150;8.680;2023-04-09T12:38:01;12.33;;;8.30;;
13415;SDS011;6779;50.150;8.680;2023-04-09T12:40:28;9.33;;;8.10;;
13415;SDS011;6779;50.150;8.680;2023-04-09T12:42:54;9.63;;;8.60;;
13415;SDS011;6779;50.150;8.680;2023-04-09T12:45:20;8.33;;;7.43;;
13415;SDS011;6779;50.150;8.680;2023-04-09T12:47:45;9.33;;;8.07;;
13415;SDS011;6779;50.150;8.680;2023-04-09T12:50:11;9.70;;;8.03;;
13415;SDS011;6779;50.150;8.680;2023-04-09T12:52:37;8.43;;;7.27;;
13415;SDS011;6779;50.150;8.680;2023-04-09T12:55:03;8.37;;;7.37;;
13415;SDS011;6779;50.150;8.680;2023-04-09T12:57:29;8.20;;;7.33;;
13415;SDS011;6779;50.150;8.680;2023-04-09T12:59:55;8.60;;;7.70;;
13415;SDS011;6779;50.150;8.680;2023-04-09T13:02:20;8.73;;;7.80;;
13415;SDS011;6779;50.150;8.680;2023-04-09T13:04:46;8.03;;;7.23;;
13415;SDS011;6779;50.150;8.680;2023-04-09T13:07:12;8.20;;;7.27;;
13415;SDS011;6779;50.150;8.680;2023-04-09T13:09:40;7.73;;;6.93;;
13415;SDS011;6779;50.150;8.680;2023-04-09T13:12:05;8.00;;;7.20;;
13415;SDS011;6779;50.150;8.680;2023-04-09T13:14:31;7.40;;;6.70;;
13415;SDS011;6779;50.150;8.680;2023-04-09T13:16:56;7.07;;;6.37;;
13415;SDS011;6779;50.150;8.680;2023-04-09T13:19:21;6.73;;;6.13;;
13415;SDS011;6779;50.150;8.680;2023-04-09T13:21:47;6.07;;;5.57;;
13415;SDS011;6779;50.150;8.680;2023-04-09T13:24:12;7.27;;;6.57;;
13415;SDS011;6779;50.150;8.680;2023-04-09T13:26:37;6.57;;;5.97;;
13415;SDS011;6779;50.150;8.680;2023-04-09T13:29:02;6.13;;;5.53;;
13415;SDS011;6779;50.150;8.680;2023-04-09T13:31:28;6.30;;;5.70;;
13415;SDS011;6779;50.150;8.680;2023-04-09T13:33:53;7.57;;;6.87;;
13415;SDS011;6779;50.150;8.680;2023-04-09T13:36:18;7.37;;;6.63;;
13415;SDS011;6779;50.150;8.680;2023-04-09T13:38:44;6.90;;;6.10;;
13415;SDS011;6779;50.150;8.680;2023-04-09T13:41:09;7.93;;;7.13;;
13415;SDS011;6779;50.150;8.680;2023-04-09T13:43:34;7.67;;;5.93;;
13415;SDS011;6779;50.150;8.680;2023-04-09T13:46:00;7.03;;;6.33;;
13415;SDS011;6779;50.150;8.680;2023-04-09T13:48:25;7.53;;;6.73;;
13415;SDS011;6779;50.150;8.680;2023-04-09T13:50:50;7.70;;;6.60;;
13415;SDS011;6779;50.150;8.680;2023-04-09T13:53:16;7.50;;;6.80;;
13415;SDS011;6779;50.150;8.680;2023-04-09T13:55:42;7.07;;;6.37;;
13415;SDS011;6779;50.150;8.680;2023-04-09T13:58:07;6.83;;;6.13;;
13415;SDS011;6779;50.150;8.680;2023-04-09T14:00:33;7.40;;;6.20;;
13415;SDS011;6779;50.150;8.680;2023-04-09T14:02:59;8.10;;;6.00;;
13415;SDS011;6779;50.150;8.680;2023-04-09T14:05:26;7.00;;;6.30;;
13415;SDS011;6779;50.150;8.680;2023-04-09T14:07:52;7.03;;;6.17;;
13415;SDS011;6779;50.150;8.680;2023-04-09T14:10:17;7.67;;;6.93;;
13415;SDS011;6779;50.150;8.680;2023-04-09T14:12:43;7.33;;;6.60;;
13415;SDS011;6779;50.150;8.680;2023-04-09T14:15:08;7.10;;;6.40;;
13415;SDS011;6779;50.150;8.680;2023-04-09T14:17:34;6.90;;;6.20;;
13415;SDS011;6779;50.150;8.680;2023-04-09T14:20:00;6.60;;;6.00;;
13415;SDS011;6779;50.150;8.680;2023-04-09T14:22:27;6.13;;;5.53;;
13415;SDS011;6779;50.150;8.680;2023-04-09T14:24:52;6.73;;;5.47;;
13415;SDS011;6779;50.150;8.680;2023-04-09T14:27:18;5.53;;;5.03;;
13415;SDS011;6779;50.150;8.680;2023-04-09T14:29:43;5.67;;;5.03;;
13415;SDS011;6779;50.150;8.680;2023-04-09T14:32:08;6.30;;;5.70;;
13415;SDS011;6779;50.150;8.680;2023-04-09T14:34:34;5.17;;;4.67;;
13415;SDS011;6779;50.150;8.680;2023-04-09T14:36:59;6.00;;;5.43;;
13415;SDS011;6779;50.150;8.680;2023-04-09T14:39:24;5.77;;;5.23;;
13415;SDS011;6779;50.150;8.680;2023-04-09T14:41:50;7.07;;;6.37;;
13415;SDS011;6779;50.150;8.680;2023-04-09T14:44:15;6.13;;;5.53;;